createdAt,value
2019-06-01T00:00:16.209Z,76.02
2019-06-01T00:02:52.212Z,76.02
2019-06-01T00:05:14.667Z,76.07
2019-06-01T00:07:42.957Z,76.05
2019-06-01T00:10:11.071Z,76.45
2019-06-01T00:12:39.391Z,76.25
2019-06-01T00:15:09.198Z,76.29
2019-06-01T00:17:36.651Z,77.07
2019-06-01T00:20:04.224Z,77.19
2019-06-01T00:22:31.589Z,77.09
2019-06-01T00:24:59.415Z,76.83
2019-06-01T00:27:26.915Z,76.71
2019-06-01T00:29:54.763Z,76.48
2019-06-01T00:32:22.223Z,77.71
2019-06-01T00:34:50.090Z,76.90
2019-06-01T00:37:17.447Z,77.64
2019-06-01T00:39:45.832Z,77.87
2019-06-01T00:42:13.205Z,77.88
2019-06-01T00:44:42.092Z,77.55
2019-06-01T00:47:09.498Z,77.03
2019-06-01T00:49:36.894Z,77.85
2019-06-01T00:52:05.307Z,78.16
2019-06-01T00:54:32.932Z,78.24
2019-06-01T00:57:00.407Z,77.79
2019-06-01T00:59:27.956Z,77.42
2019-06-01T01:01:55.927Z,76.69
2019-06-01T01:04:23.275Z,77.93
2019-06-01T01:06:50.903Z,77.39
2019-06-01T01:09:18.355Z,76.80
2019-06-01T01:11:46.938Z,77.63
2019-06-01T01:14:14.528Z,77.54
2019-06-01T01:16:41.890Z,78.23
2019-06-01T01:19:09.247Z,77.73
2019-06-01T01:21:37.115Z,77.76
2019-06-01T01:24:04.578Z,77.45
2019-06-01T01:26:32.136Z,77.11
2019-06-01T01:28:59.591Z,77.14
2019-06-01T01:31:27.354Z,77.00
2019-06-01T01:33:55.503Z,77.43
2019-06-01T01:36:22.985Z,78.02
2019-06-01T01:38:52.074Z,77.69
2019-06-01T01:41:20.066Z,78.21
2019-06-01T01:43:48.441Z,78.45
2019-06-01T01:46:15.868Z,78.87
2019-06-01T01:48:43.250Z,78.61
2019-06-01T01:51:11.112Z,78.96
2019-06-01T01:53:38.680Z,79.21
2019-06-01T01:56:06.082Z,79.70
2019-06-01T01:58:34.197Z,79.63
2019-06-01T02:01:20.795Z,80.00
2019-06-01T02:03:31.548Z,79.66
2019-06-01T02:05:59.170Z,79.40
2019-06-01T02:08:26.688Z,79.24
2019-06-01T02:10:55.409Z,79.30
2019-06-01T02:13:22.983Z,79.32
2019-06-01T02:15:52.097Z,79.45
2019-06-01T02:18:19.561Z,79.32
2019-06-01T02:20:49.318Z,79.67
2019-06-01T02:23:16.669Z,80.08
2019-06-01T02:25:44.228Z,80.25
2019-06-01T02:28:13.529Z,79.85
2019-06-01T02:30:41.290Z,79.96
2019-06-01T02:33:09.028Z,79.68
2019-06-01T02:35:36.620Z,80.16
2019-06-01T02:38:05.694Z,80.30
2019-06-01T02:40:34.983Z,80.45
2019-06-01T02:43:04.257Z,80.51
2019-06-01T02:45:31.680Z,81.01
2019-06-01T02:47:59.551Z,80.95
2019-06-01T02:50:27.810Z,81.36
2019-06-01T02:52:55.556Z,82.35
2019-06-01T02:55:23.340Z,82.27
2019-06-01T02:57:50.896Z,81.84
2019-06-01T03:00:41.272Z,81.55
2019-06-01T03:03:10.237Z,81.86
2019-06-01T03:05:38.876Z,81.41
2019-06-01T03:08:08.192Z,81.34
2019-06-01T03:10:37.469Z,80.33
2019-06-01T03:13:06.412Z,79.53
2019-06-01T03:15:36.486Z,79.06
2019-06-01T03:18:05.611Z,79.36
2019-06-01T03:20:34.277Z,79.51
2019-06-01T03:23:03.777Z,80.63
2019-06-01T03:25:33.378Z,79.77
2019-06-01T03:28:04.136Z,79.50
2019-06-01T03:30:44.850Z,79.37
2019-06-01T03:33:10.594Z,80.65
2019-06-01T03:35:38.565Z,80.32
2019-06-01T03:38:06.966Z,80.87
2019-06-01T03:40:35.116Z,79.56
2019-06-01T03:43:04.284Z,79.77
2019-06-01T03:45:32.178Z,79.39
2019-06-01T03:48:00.514Z,79.91
2019-06-01T03:50:28.657Z,80.09
2019-06-01T03:52:56.351Z,79.91
2019-06-01T03:55:23.773Z,79.48
2019-06-01T03:57:51.113Z,79.99
2019-06-01T04:00:18.970Z,79.34
2019-06-01T04:02:46.457Z,79.25
2019-06-01T04:05:13.989Z,79.10
2019-06-01T04:07:41.660Z,79.03
2019-06-01T04:10:11.777Z,79.18
2019-06-01T04:12:39.541Z,78.89
2019-06-01T04:15:11.591Z,77.83
2019-06-01T04:17:36.710Z,77.89
2019-06-01T04:20:06.000Z,77.79
2019-06-01T04:22:33.781Z,77.00
2019-06-01T04:25:02.040Z,77.66
2019-06-01T04:27:29.612Z,76.70
2019-06-01T04:29:57.730Z,76.60
2019-06-01T04:32:25.051Z,76.98
2019-06-01T04:34:52.500Z,76.22
2019-06-01T04:37:19.856Z,76.07
2019-06-01T04:39:47.727Z,76.50
2019-06-01T04:42:15.187Z,75.93
2019-06-01T04:44:42.973Z,75.87
2019-06-01T04:47:10.791Z,75.24
2019-06-01T04:49:38.879Z,75.21
2019-06-01T04:52:06.792Z,74.09
2019-06-01T04:54:34.603Z,73.80
2019-06-01T04:57:02.279Z,74.85
2019-06-01T04:59:31.116Z,74.63
2019-06-01T05:01:58.739Z,73.80
2019-06-01T05:04:26.087Z,73.49
2019-06-01T05:06:54.192Z,73.75
2019-06-01T05:09:21.813Z,73.76
2019-06-01T05:11:49.275Z,72.90
2019-06-01T05:14:16.798Z,73.27
2019-06-01T05:16:44.295Z,72.97
2019-06-01T05:19:12.280Z,71.48
2019-06-01T05:21:39.768Z,72.65
2019-06-01T05:24:08.730Z,73.21
2019-06-01T05:26:36.371Z,71.84
2019-06-01T05:29:04.039Z,71.87
2019-06-01T05:31:33.820Z,71.54
2019-06-01T05:34:01.242Z,71.11
2019-06-01T05:36:29.372Z,70.42
2019-06-01T05:38:56.731Z,71.26
2019-06-01T05:41:24.241Z,70.36
2019-06-01T05:43:51.740Z,71.03
2019-06-01T05:46:19.818Z,70.46
2019-06-01T05:48:47.273Z,70.68
2019-06-01T05:51:16.867Z,70.05
2019-06-01T05:53:43.928Z,69.42
2019-06-01T05:56:12.721Z,68.39
2019-06-01T05:58:41.397Z,68.58
2019-06-01T06:01:10.299Z,67.93
2019-06-01T06:03:40.798Z,67.58
2019-06-01T06:06:08.409Z,67.08
2019-06-01T06:08:36.247Z,66.76
2019-06-01T06:11:05.444Z,65.54
2019-06-01T06:13:33.074Z,64.62
2019-06-01T06:16:00.646Z,61.96
2019-06-01T06:18:28.126Z,57.11
2019-06-01T06:20:56.299Z,56.71
2019-06-01T06:23:23.656Z,52.26
2019-06-01T06:25:54.534Z,51.22
2019-06-01T06:28:23.224Z,48.58
2019-06-01T06:30:51.467Z,47.44
2019-06-01T06:33:19.372Z,49.71
2019-06-01T06:35:47.104Z,47.90
2019-06-01T06:38:15.673Z,47.83
2019-06-01T06:40:43.810Z,47.97
2019-06-01T06:43:32.957Z,47.65
2019-06-01T06:45:56.552Z,45.83
2019-06-01T06:48:25.289Z,46.31
2019-06-01T06:50:57.425Z,46.18
2019-06-01T06:53:33.514Z,44.01
2019-06-01T06:55:54.129Z,46.80
2019-06-01T06:58:26.661Z,45.39
2019-06-01T07:00:54.075Z,44.31
2019-06-01T07:03:23.103Z,46.66
2019-06-01T07:05:50.731Z,47.58
2019-06-01T07:08:18.114Z,48.03
2019-06-01T07:10:45.621Z,47.32
2019-06-01T07:13:13.519Z,43.90
2019-06-01T07:15:41.281Z,47.53
2019-06-01T07:18:08.632Z,45.41
2019-06-01T07:20:36.279Z,42.46
2019-06-01T07:23:06.635Z,42.97
2019-06-01T07:25:34.091Z,44.47
2019-06-01T07:28:01.735Z,44.19
2019-06-01T07:30:29.266Z,42.75
2019-06-01T07:32:57.262Z,42.89
2019-06-01T07:35:26.877Z,43.11
2019-06-01T07:37:54.238Z,42.53
2019-06-01T07:40:22.950Z,41.42
2019-06-01T07:42:50.791Z,42.92
2019-06-01T07:45:18.762Z,42.51
2019-06-01T07:47:46.535Z,43.29
2019-06-01T07:50:13.982Z,43.02
2019-06-01T07:52:42.669Z,44.69
2019-06-01T07:55:11.595Z,45.56
2019-06-01T07:57:42.955Z,44.55
2019-06-01T08:00:09.447Z,42.57
2019-06-01T08:02:37.349Z,41.85
2019-06-01T08:05:05.395Z,41.54
2019-06-01T08:07:32.851Z,42.39
2019-06-01T08:10:01.767Z,41.79
2019-06-01T08:12:31.665Z,44.68
2019-06-01T08:14:59.430Z,42.68
2019-06-01T08:17:28.115Z,42.57
2019-06-01T08:19:55.683Z,41.16
2019-06-01T08:22:24.463Z,40.73
2019-06-01T08:24:51.971Z,44.50
2019-06-01T08:27:19.934Z,42.44
2019-06-01T08:30:09.495Z,44.08
2019-06-01T08:32:36.870Z,44.27
2019-06-01T08:35:09.197Z,41.57
2019-06-01T08:37:34.223Z,41.28
2019-06-01T08:40:01.502Z,40.28
2019-06-01T08:42:29.601Z,39.69
2019-06-01T08:44:57.635Z,39.57
2019-06-01T08:47:25.670Z,39.49
2019-06-01T08:49:57.334Z,43.85
2019-06-01T08:52:26.294Z,45.52
2019-06-01T08:54:57.158Z,44.05
2019-06-01T08:57:26.109Z,46.09
2019-06-01T08:59:53.754Z,45.89
2019-06-01T09:02:21.373Z,47.30
2019-06-01T09:04:48.767Z,44.85
2019-06-01T09:07:18.287Z,45.92
2019-06-01T09:09:48.525Z,44.26
2019-06-01T09:12:15.950Z,44.99
2019-06-01T09:14:43.813Z,46.54
2019-06-01T09:17:11.376Z,44.91
2019-06-01T09:19:39.766Z,44.13
2019-06-01T09:22:07.763Z,45.27
2019-06-01T09:24:36.747Z,42.65
2019-06-01T09:27:04.405Z,44.88
2019-06-01T09:29:34.000Z,42.73
2019-06-01T09:32:02.071Z,45.70
2019-06-01T09:34:30.486Z,46.37
2019-06-01T09:36:57.846Z,44.50
2019-06-01T09:39:26.602Z,42.12
2019-06-01T09:41:54.571Z,45.25
2019-06-01T09:44:22.246Z,43.55
2019-06-01T09:46:52.423Z,41.97
2019-06-01T09:49:19.820Z,42.01
2019-06-01T09:51:47.428Z,38.89
2019-06-01T09:54:14.830Z,38.43
2019-06-01T09:56:42.197Z,40.86
2019-06-01T09:59:09.616Z,41.40
2019-06-01T10:01:37.044Z,43.59
2019-06-01T10:04:07.640Z,42.58
2019-06-01T10:06:35.311Z,41.41
2019-06-01T10:09:05.948Z,41.01
2019-06-01T10:11:34.314Z,42.01
2019-06-01T10:14:02.086Z,42.42
2019-06-01T10:16:30.620Z,41.53
2019-06-01T10:18:58.021Z,44.84
2019-06-01T10:21:25.387Z,41.57
2019-06-01T10:23:52.637Z,40.64
2019-06-01T10:26:20.505Z,41.22
2019-06-01T10:28:50.024Z,44.34
2019-06-01T10:31:17.781Z,41.67
2019-06-01T10:33:45.235Z,42.17
2019-06-01T10:36:20.558Z,41.18
2019-06-01T10:38:42.518Z,39.95
2019-06-01T10:41:09.867Z,41.77
2019-06-01T10:43:37.701Z,40.95
2019-06-01T10:46:10.268Z,39.84
2019-06-01T10:48:38.069Z,43.06
2019-06-01T10:51:06.848Z,39.83
2019-06-01T10:53:34.848Z,41.15
2019-06-01T10:56:04.052Z,42.93
2019-06-01T10:58:32.225Z,41.40
2019-06-01T11:01:04.993Z,40.67
2019-06-01T11:03:34.603Z,39.69
2019-06-01T11:06:04.252Z,39.43
2019-06-01T11:08:32.825Z,41.35
2019-06-01T11:11:00.269Z,41.15
2019-06-01T11:13:33.035Z,40.59
2019-06-01T11:16:00.512Z,39.88
2019-06-01T11:18:28.273Z,38.38
2019-06-01T11:20:55.631Z,41.73
2019-06-01T11:23:23.152Z,40.92
2019-06-01T11:25:51.581Z,40.85
2019-06-01T11:28:19.035Z,40.53
2019-06-01T11:30:47.006Z,39.09
2019-06-01T11:33:14.357Z,38.71
2019-06-01T11:35:43.422Z,41.39
2019-06-01T11:38:11.318Z,38.09
2019-06-01T11:40:40.827Z,37.96
2019-06-01T11:43:08.285Z,39.12
2019-06-01T11:45:36.624Z,38.52
2019-06-01T11:48:04.530Z,38.14
2019-06-01T11:50:32.005Z,37.53
2019-06-01T11:52:59.453Z,39.73
2019-06-01T11:55:35.141Z,37.49
2019-06-01T11:58:03.550Z,38.99
2019-06-01T12:00:32.868Z,38.18
2019-06-01T12:03:02.197Z,37.40
2019-06-01T12:05:30.061Z,37.47
2019-06-01T12:07:57.418Z,39.23
2019-06-01T12:10:25.850Z,35.54
2019-06-01T12:12:54.480Z,35.75
2019-06-01T12:15:26.425Z,38.19
2019-06-01T12:17:51.958Z,34.97
2019-06-01T12:20:20.232Z,36.17
2019-06-01T12:22:47.998Z,39.33
2019-06-01T12:25:16.538Z,36.45
2019-06-01T12:27:44.260Z,37.21
2019-06-01T12:30:12.918Z,38.55
2019-06-01T12:32:41.795Z,37.26
2019-06-01T12:35:09.347Z,37.00
2019-06-01T12:37:56.169Z,36.44
2019-06-01T12:40:10.858Z,33.74
2019-06-01T12:42:43.996Z,33.28
2019-06-01T12:45:17.125Z,34.80
2019-06-01T12:47:44.596Z,37.44
2019-06-01T12:50:12.166Z,37.41
2019-06-01T12:52:40.358Z,38.76
2019-06-01T12:55:08.610Z,38.40
2019-06-01T12:57:36.068Z,39.03
2019-06-01T13:00:04.692Z,39.29
2019-06-01T13:02:32.005Z,37.65
2019-06-01T13:05:01.005Z,33.69
2019-06-01T13:07:28.453Z,35.25
2019-06-01T13:09:56.043Z,36.02
2019-06-01T13:12:23.374Z,37.07
2019-06-01T13:14:52.194Z,35.70
2019-06-01T13:17:19.925Z,33.75
2019-06-01T13:19:47.443Z,32.45
2019-06-01T13:22:16.028Z,31.87
2019-06-01T13:24:45.883Z,31.31
2019-06-01T13:27:23.040Z,31.89
2019-06-01T13:29:54.555Z,31.52
2019-06-01T13:32:21.996Z,33.84
2019-06-01T13:34:51.422Z,34.45
2019-06-01T13:37:20.491Z,35.62
2019-06-01T13:39:54.598Z,33.57
2019-06-01T13:42:17.036Z,33.04
2019-06-01T13:44:45.413Z,32.58
2019-06-01T13:47:13.307Z,30.61
2019-06-01T13:49:40.571Z,30.12
2019-06-01T13:52:08.019Z,32.30
2019-06-01T13:54:40.110Z,33.02
2019-06-01T13:57:07.448Z,33.08
2019-06-01T13:59:35.023Z,32.59
2019-06-01T14:02:02.377Z,31.04
2019-06-01T14:04:29.669Z,30.27
2019-06-01T14:06:57.491Z,32.14
2019-06-01T14:09:24.970Z,34.46
2019-06-01T14:11:53.511Z,36.38
2019-06-01T14:14:21.103Z,32.70
2019-06-01T14:16:49.524Z,33.80
2019-06-01T14:19:17.043Z,33.57
2019-06-01T14:21:45.744Z,32.42
2019-06-01T14:24:24.570Z,29.92
2019-06-01T14:26:59.982Z,30.48
2019-06-01T14:29:27.725Z,32.02
2019-06-01T14:31:57.130Z,30.08
2019-06-01T14:34:24.856Z,29.51
2019-06-01T14:36:52.791Z,29.29
2019-06-01T14:39:20.552Z,29.51
2019-06-01T14:41:49.016Z,31.72
2019-06-01T14:44:16.410Z,32.53
2019-06-01T14:46:53.418Z,33.15
2019-06-01T14:49:13.355Z,30.65
2019-06-01T14:51:40.799Z,31.44
2019-06-01T14:54:08.478Z,32.92
2019-06-01T14:56:43.649Z,33.05
2019-06-01T14:59:20.614Z,35.14
2019-06-01T15:01:50.004Z,33.38
2019-06-01T15:04:17.562Z,34.50
2019-06-01T15:06:45.422Z,34.62
2019-06-01T15:09:19.110Z,35.48
2019-06-01T15:11:41.982Z,34.98
2019-06-01T15:14:09.947Z,34.46
2019-06-01T15:16:37.415Z,34.32
2019-06-01T15:19:04.880Z,34.06
2019-06-01T15:21:32.373Z,34.52
2019-06-01T15:23:59.855Z,34.63
2019-06-01T15:26:28.698Z,33.84
2019-06-01T15:28:57.075Z,33.64
2019-06-01T15:31:25.187Z,33.54
2019-06-01T15:33:53.210Z,35.08
2019-06-01T15:36:21.255Z,35.65
2019-06-01T15:38:48.731Z,37.50
2019-06-01T15:41:16.287Z,38.19
2019-06-01T15:43:44.032Z,38.95
2019-06-01T15:46:13.400Z,38.18
2019-06-01T15:48:40.820Z,37.19
2019-06-01T15:51:08.177Z,36.59
2019-06-01T15:53:35.573Z,37.26
2019-06-01T15:56:03.526Z,37.37
2019-06-01T15:58:32.801Z,36.58
2019-06-01T16:01:00.978Z,38.15
2019-06-01T16:03:28.838Z,38.38
2019-06-01T16:05:59.152Z,38.17
2019-06-01T16:08:26.763Z,37.93
2019-06-01T16:10:55.209Z,36.46
2019-06-01T16:13:22.687Z,36.83
2019-06-01T16:15:50.097Z,36.50
2019-06-01T16:18:17.580Z,36.45
2019-06-01T16:20:45.959Z,36.58
2019-06-01T16:23:15.775Z,38.24
2019-06-01T16:25:48.208Z,37.32
2019-06-01T16:28:13.314Z,37.88
2019-06-01T16:30:40.703Z,38.34
2019-06-01T16:33:11.549Z,38.34
2019-06-01T16:35:39.110Z,37.78
2019-06-01T16:38:06.616Z,37.18
2019-06-01T16:40:34.219Z,38.40
2019-06-01T16:43:01.692Z,37.43
2019-06-01T16:45:29.441Z,38.16
2019-06-01T16:47:57.445Z,37.42
2019-06-01T16:50:24.880Z,38.13
2019-06-01T16:52:52.351Z,38.19
2019-06-01T16:55:21.455Z,37.78
2019-06-01T16:57:48.903Z,38.89
2019-06-01T17:00:16.682Z,38.70
2019-06-01T17:02:44.271Z,39.09
2019-06-01T17:05:12.683Z,38.58
2019-06-01T17:07:40.368Z,39.17
2019-06-01T17:10:24.580Z,39.53
2019-06-01T17:12:43.062Z,39.33
2019-06-01T17:15:09.753Z,38.93
2019-06-01T17:17:37.264Z,38.99
2019-06-01T17:20:07.277Z,39.50
2019-06-01T17:22:37.196Z,39.19
2019-06-01T17:25:06.114Z,38.55
2019-06-01T17:27:33.649Z,39.28
2019-06-01T17:30:06.156Z,41.79
2019-06-01T17:32:30.816Z,40.52
2019-06-01T17:34:58.608Z,39.08
2019-06-01T17:37:26.040Z,39.49
2019-06-01T17:39:56.048Z,40.36
2019-06-01T17:42:23.731Z,38.94
2019-06-01T17:44:51.233Z,40.19
2019-06-01T17:47:18.539Z,40.34
2019-06-01T17:49:45.888Z,39.85
2019-06-01T17:52:13.668Z,40.68
2019-06-01T17:54:41.733Z,41.04
2019-06-01T17:57:09.680Z,40.72
2019-06-01T17:59:37.260Z,40.61
2019-06-01T18:02:05.791Z,40.37
2019-06-01T18:04:33.813Z,40.10
2019-06-01T18:07:01.810Z,41.02
2019-06-01T18:09:29.466Z,41.08
2019-06-01T18:11:57.012Z,42.78
2019-06-01T18:14:26.318Z,41.17
2019-06-01T18:16:54.075Z,41.33
2019-06-01T18:19:21.602Z,43.44
2019-06-01T18:21:49.097Z,42.62
2019-06-01T18:24:17.449Z,43.30
2019-06-01T18:26:44.827Z,43.66
2019-06-01T18:29:12.736Z,44.16
2019-06-01T18:31:41.092Z,44.07
2019-06-01T18:34:09.695Z,44.86
2019-06-01T18:36:38.100Z,44.40
2019-06-01T18:39:07.603Z,45.90
2019-06-01T18:41:35.417Z,46.09
2019-06-01T18:44:03.586Z,45.98
2019-06-01T18:46:31.157Z,48.27
2019-06-01T18:48:59.025Z,46.46
2019-06-01T18:51:26.785Z,46.63
2019-06-01T18:53:54.450Z,47.98
2019-06-01T18:56:22.017Z,47.48
2019-06-01T18:58:49.941Z,46.98
2019-06-01T19:01:20.964Z,46.98
2019-06-01T19:03:48.582Z,47.73
2019-06-01T19:06:16.053Z,48.11
2019-06-01T19:08:44.109Z,48.30
2019-06-01T19:11:28.304Z,48.62
2019-06-01T19:13:40.965Z,48.25
2019-06-01T19:16:08.290Z,48.85
2019-06-01T19:18:35.800Z,49.69
2019-06-01T19:21:03.523Z,49.10
2019-06-01T19:23:31.001Z,50.74
2019-06-01T19:25:58.856Z,50.25
2019-06-01T19:28:28.325Z,50.98
2019-06-01T19:30:55.838Z,51.61
2019-06-01T19:33:23.810Z,52.62
2019-06-01T19:35:52.585Z,52.75
2019-06-01T19:38:20.633Z,52.75
2019-06-01T19:40:48.218Z,52.76
2019-06-01T19:43:17.659Z,52.64
2019-06-01T19:45:45.694Z,52.88
2019-06-01T19:48:14.558Z,52.45
2019-06-01T19:50:42.250Z,53.05
2019-06-01T19:53:10.587Z,54.37
2019-06-01T19:55:38.753Z,53.94
2019-06-01T19:58:06.458Z,54.81
2019-06-01T20:00:34.191Z,54.95
2019-06-01T20:03:01.790Z,55.81
2019-06-01T20:05:29.646Z,55.03
2019-06-01T20:07:57.062Z,55.85
2019-06-01T20:10:24.586Z,55.84
2019-06-01T20:12:52.042Z,55.28
2019-06-01T20:15:21.206Z,56.44
2019-06-01T20:17:50.226Z,55.38
2019-06-01T20:20:24.287Z,55.62
2019-06-01T20:22:51.841Z,56.98
2019-06-01T20:25:19.877Z,57.95
2019-06-01T20:27:47.696Z,57.37
2019-06-01T20:30:15.872Z,57.81
2019-06-01T20:32:43.675Z,57.81
2019-06-01T20:35:12.282Z,57.80
2019-06-01T20:37:39.822Z,58.03
2019-06-01T20:40:08.926Z,58.01
2019-06-01T20:42:36.484Z,58.65
2019-06-01T20:45:07.728Z,58.80
2019-06-01T20:47:35.498Z,59.20
2019-06-01T20:50:05.212Z,59.95
2019-06-01T20:52:32.563Z,59.93
2019-06-01T20:55:00.019Z,59.94
2019-06-01T20:57:27.959Z,59.93
2019-06-01T20:59:57.126Z,59.87
2019-06-01T21:02:24.551Z,59.89
2019-06-01T21:04:53.511Z,59.85
2019-06-01T21:07:21.883Z,60.03
2019-06-01T21:09:49.499Z,60.20
2019-06-01T21:12:18.775Z,60.41
2019-06-01T21:14:46.355Z,60.53
2019-06-01T21:17:16.364Z,59.54
2019-06-01T21:19:44.140Z,59.40
2019-06-01T21:22:12.007Z,59.22
2019-06-01T21:24:39.671Z,59.41
2019-06-01T21:27:06.971Z,59.65
2019-06-01T21:29:34.487Z,59.46
2019-06-01T21:32:02.486Z,59.77
2019-06-01T21:34:29.995Z,59.87
2019-06-01T21:36:58.468Z,60.39
2019-06-01T21:39:25.953Z,60.92
2019-06-01T21:41:53.734Z,60.85
2019-06-01T21:44:21.667Z,61.51
2019-06-01T21:46:49.051Z,61.63
2019-06-01T21:49:17.564Z,61.74
2019-06-01T21:51:46.018Z,61.41
2019-06-01T21:54:13.571Z,61.52
2019-06-01T21:56:41.127Z,61.98
2019-06-01T21:59:08.482Z,61.72
2019-06-01T22:01:39.732Z,62.23
2019-06-01T22:04:07.283Z,62.24
2019-06-01T22:06:34.751Z,62.20
2019-06-01T22:09:03.175Z,62.27
2019-06-01T22:11:30.568Z,62.85
2019-06-01T22:13:59.714Z,62.71
2019-06-01T22:16:27.926Z,63.00
2019-06-01T22:18:55.454Z,63.21
2019-06-01T22:21:23.831Z,63.02
2019-06-01T22:23:51.352Z,62.84
2019-06-01T22:26:19.865Z,63.26
2019-06-01T22:28:48.616Z,63.12
2019-06-01T22:31:16.064Z,63.67
2019-06-01T22:33:43.440Z,63.75
2019-06-01T22:36:11.408Z,63.72
2019-06-01T22:38:38.964Z,63.73
2019-06-01T22:41:07.754Z,63.79
2019-06-01T22:43:45.726Z,63.51
2019-06-01T22:46:05.335Z,62.80
2019-06-01T22:48:32.971Z,62.70
2019-06-01T22:51:02.099Z,62.87
2019-06-01T22:53:30.141Z,63.29
2019-06-01T22:55:57.632Z,63.59
2019-06-01T22:58:25.322Z,63.92
2019-06-01T23:00:52.857Z,64.19
2019-06-01T23:03:21.820Z,64.78
2019-06-01T23:05:49.492Z,64.58
2019-06-01T23:08:16.745Z,64.73
2019-06-01T23:10:44.837Z,64.60
2019-06-01T23:13:12.292Z,64.28
2019-06-01T23:15:39.854Z,64.42
2019-06-01T23:18:07.287Z,65.23
2019-06-01T23:20:35.086Z,65.54
2019-06-01T23:23:02.395Z,65.00
2019-06-01T23:25:30.767Z,64.97
2019-06-01T23:27:58.384Z,65.15
2019-06-01T23:30:26.548Z,65.28
2019-06-01T23:32:54.512Z,65.24
2019-06-01T23:35:22.909Z,65.65
2019-06-01T23:37:50.369Z,65.63
2019-06-01T23:40:19.660Z,66.08
2019-06-01T23:42:47.125Z,65.83
2019-06-01T23:45:17.038Z,65.66
2019-06-01T23:47:45.012Z,65.81
2019-06-01T23:50:15.221Z,66.40
2019-06-01T23:52:48.072Z,67.00
2019-06-01T23:55:15.674Z,67.01
2019-06-01T23:57:44.688Z,67.37
